sensor_id;sensor_type;location;lat;lon;timestamp;P1;durP1;ratioP1;P2;durP2;ratioP2
7529;SDS011;3806;52.270;10.544;2023-12-29T00:01:31;2.25;;;1.00;;
7529;SDS011;3806;52.270;10.544;2023-12-29T00:03:57;3.45;;;1.30;;
7529;SDS011;3806;52.270;10.544;2023-12-29T00:06:22;2.13;;;0.95;;
7529;SDS011;3806;52.270;10.544;2023-12-29T00:08:48;2.97;;;1.52;;
7529;SDS011;3806;52.270;10.544;2023-12-29T00:11:20;2.05;;;1.10;;
7529;SDS011;3806;52.270;10.544;2023-12-29T00:13:45;8.18;;;1.60;;
7529;SDS011;3806;52.270;10.544;2023-12-29T00:16:11;3.75;;;1.50;;
7529;SDS011;3806;52.270;10.544;2023-12-29T00:18:37;2.03;;;1.70;;
7529;SDS011;3806;52.270;10.544;2023-12-29T00:21:03;4.80;;;1.20;;
7529;SDS011;3806;52.270;10.544;2023-12-29T00:23:29;3.30;;;1.50;;
7529;SDS011;3806;52.270;10.544;2023-12-29T00:25:55;3.10;;;1.60;;
7529;SDS011;3806;52.270;10.544;2023-12-29T00:28:20;5.47;;;1.58;;
7529;SDS011;3806;52.270;10.544;2023-12-29T00:30:46;1.70;;;1.05;;
7529;SDS011;3806;52.270;10.544;2023-12-29T00:33:11;2.67;;;1.80;;
7529;SDS011;3806;52.270;10.544;2023-12-29T00:35:37;4.18;;;1.15;;
7529;SDS011;3806;52.270;10.544;2023-12-29T00:38:04;5.80;;;1.27;;
7529;SDS011;3806;52.270;10.544;2023-12-29T00:40:30;2.10;;;1.33;;
7529;SDS011;3806;52.270;10.544;2023-12-29T00:42:55;2.47;;;1.30;;
7529;SDS011;3806;52.270;10.544;2023-12-29T00:45:21;5.13;;;1.02;;
7529;SDS011;3806;52.270;10.544;2023-12-29T00:47:46;3.30;;;1.42;;
7529;SDS011;3806;52.270;10.544;2023-12-29T00:50:13;3.00;;;1.42;;
7529;SDS011;3806;52.270;10.544;2023-12-29T00:52:39;1.60;;;1.35;;
7529;SDS011;3806;52.270;10.544;2023-12-29T00:55:05;4.03;;;1.27;;
7529;SDS011;3806;52.270;10.544;2023-12-29T00:57:30;2.40;;;1.35;;
7529;SDS011;3806;52.270;10.544;2023-12-29T00:59:56;7.38;;;1.33;;
7529;SDS011;3806;52.270;10.544;2023-12-29T01:02:21;1.35;;;1.15;;
7529;SDS011;3806;52.270;10.544;2023-12-29T01:04:47;2.38;;;0.93;;
7529;SDS011;3806;52.270;10.544;2023-12-29T01:07:13;3.70;;;1.40;;
7529;SDS011;3806;52.270;10.544;2023-12-29T01:09:39;3.55;;;1.20;;
7529;SDS011;3806;52.270;10.544;2023-12-29T01:12:05;1.15;;;0.98;;
7529;SDS011;3806;52.270;10.544;2023-12-29T01:14:31;1.92;;;1.30;;
7529;SDS011;3806;52.270;10.544;2023-12-29T01:16:56;4.30;;;1.40;;
7529;SDS011;3806;52.270;10.544;2023-12-29T01:19:22;3.00;;;0.80;;
7529;SDS011;3806;52.270;10.544;2023-12-29T01:21:47;1.70;;;1.10;;
7529;SDS011;3806;52.270;10.544;2023-12-29T01:24:13;3.00;;;1.10;;
7529;SDS011;3806;52.270;10.544;2023-12-29T01:26:38;2.97;;;0.93;;
7529;SDS011;3806;52.270;10.544;2023-12-29T01:29:04;1.63;;;1.08;;
7529;SDS011;3806;52.270;10.544;2023-12-29T01:31:32;2.33;;;1.40;;
7529;SDS011;3806;52.270;10.544;2023-12-29T01:33:58;1.75;;;1.20;;
7529;SDS011;3806;52.270;10.544;2023-12-29T01:36:23;1.75;;;1.02;;
7529;SDS011;3806;52.270;10.544;2023-12-29T01:38:49;2.50;;;0.93;;
7529;SDS011;3806;52.270;10.544;2023-12-29T01:41:15;3.80;;;1.05;;
7529;SDS011;3806;52.270;10.544;2023-12-29T01:46:22;3.72;;;1.08;;
7529;SDS011;3806;52.270;10.544;2023-12-29T01:48:50;1.80;;;1.00;;
7529;SDS011;3806;52.270;10.544;2023-12-29T01:51:16;1.30;;;0.90;;
7529;SDS011;3806;52.270;10.544;2023-12-29T01:53:43;1.45;;;1.20;;
7529;SDS011;3806;52.270;10.544;2023-12-29T01:56:09;2.10;;;1.20;;
7529;SDS011;3806;52.270;10.544;2023-12-29T01:58:35;1.52;;;0.90;;
7529;SDS011;3806;52.270;10.544;2023-12-29T02:01:02;2.10;;;0.90;;
7529;SDS011;3806;52.270;10.544;2023-12-29T02:03:29;2.03;;;1.10;;
7529;SDS011;3806;52.270;10.544;2023-12-29T02:05:55;3.05;;;1.30;;
7529;SDS011;3806;52.270;10.544;2023-12-29T02:08:22;1.20;;;0.95;;
7529;SDS011;3806;52.270;10.544;2023-12-29T02:10:47;3.53;;;1.33;;
7529;SDS011;3806;52.270;10.544;2023-12-29T02:13:13;3.47;;;1.05;;
7529;SDS011;3806;52.270;10.544;2023-12-29T02:15:39;4.28;;;0.95;;
7529;SDS011;3806;52.270;10.544;2023-12-29T02:18:05;3.83;;;1.25;;
7529;SDS011;3806;52.270;10.544;2023-12-29T02:20:32;1.15;;;0.90;;
7529;SDS011;3806;52.270;10.544;2023-12-29T02:22:58;3.45;;;1.13;;
7529;SDS011;3806;52.270;10.544;2023-12-29T02:25:25;4.93;;;1.10;;
7529;SDS011;3806;52.270;10.544;2023-12-29T02:30:38;2.92;;;1.13;;
7529;SDS011;3806;52.270;10.544;2023-12-29T02:33:12;2.45;;;1.17;;
7529;SDS011;3806;52.270;10.544;2023-12-29T02:35:42;3.03;;;1.15;;
7529;SDS011;3806;52.270;10.544;2023-12-29T02:38:10;3.30;;;1.08;;
7529;SDS011;3806;52.270;10.544;2023-12-29T02:40:37;1.42;;;0.80;;
7529;SDS011;3806;52.270;10.544;2023-12-29T02:43:03;2.30;;;0.95;;
7529;SDS011;3806;52.270;10.544;2023-12-29T02:45:28;2.42;;;1.00;;
7529;SDS011;3806;52.270;10.544;2023-12-29T02:47:54;2.67;;;0.98;;
7529;SDS011;3806;52.270;10.544;2023-12-29T02:50:19;1.05;;;0.85;;
7529;SDS011;3806;52.270;10.544;2023-12-29T02:52:45;1.17;;;0.88;;
7529;SDS011;3806;52.270;10.544;2023-12-29T02:55:11;2.65;;;1.17;;
7529;SDS011;3806;52.270;10.544;2023-12-29T02:57:37;1.98;;;1.10;;
7529;SDS011;3806;52.270;10.544;2023-12-29T03:00:03;3.70;;;1.20;;
7529;SDS011;3806;52.270;10.544;2023-12-29T03:02:30;2.45;;;0.80;;
7529;SDS011;3806;52.270;10.544;2023-12-29T03:04:55;2.78;;;0.80;;
7529;SDS011;3806;52.270;10.544;2023-12-29T03:07:20;1.52;;;0.95;;
7529;SDS011;3806;52.270;10.544;2023-12-29T03:09:46;2.13;;;0.90;;
7529;SDS011;3806;52.270;10.544;2023-12-29T03:12:12;2.75;;;1.10;;
7529;SDS011;3806;52.270;10.544;2023-12-29T03:14:38;2.10;;;0.93;;
7529;SDS011;3806;52.270;10.544;2023-12-29T03:17:03;2.72;;;1.10;;
7529;SDS011;3806;52.270;10.544;2023-12-29T03:19:29;2.63;;;1.30;;
7529;SDS011;3806;52.270;10.544;2023-12-29T03:21:54;1.15;;;0.90;;
7529;SDS011;3806;52.270;10.544;2023-12-29T03:24:20;2.45;;;1.15;;
7529;SDS011;3806;52.270;10.544;2023-12-29T03:26:46;4.60;;;1.40;;
7529;SDS011;3806;52.270;10.544;2023-12-29T03:29:11;1.83;;;1.00;;
7529;SDS011;3806;52.270;10.544;2023-12-29T03:31:37;1.67;;;0.95;;
7529;SDS011;3806;52.270;10.544;2023-12-29T03:34:03;2.50;;;1.20;;
7529;SDS011;3806;52.270;10.544;2023-12-29T03:36:28;2.58;;;1.50;;
7529;SDS011;3806;52.270;10.544;2023-12-29T03:38:54;3.92;;;1.30;;
7529;SDS011;3806;52.270;10.544;2023-12-29T03:41:19;1.50;;;1.13;;
7529;SDS011;3806;52.270;10.544;2023-12-29T03:43:45;2.22;;;1.45;;
7529;SDS011;3806;52.270;10.544;2023-12-29T03:48:43;3.50;;;1.10;;
7529;SDS011;3806;52.270;10.544;2023-12-29T03:51:08;6.22;;;1.15;;
7529;SDS011;3806;52.270;10.544;2023-12-29T03:53:34;4.50;;;1.20;;
7529;SDS011;3806;52.270;10.544;2023-12-29T03:55:59;5.47;;;1.25;;
7529;SDS011;3806;52.270;10.544;2023-12-29T03:58:33;3.03;;;1.33;;
7529;SDS011;3806;52.270;10.544;2023-12-29T04:00:58;3.38;;;1.58;;
7529;SDS011;3806;52.270;10.544;2023-12-29T04:03:24;2.50;;;1.85;;
7529;SDS011;3806;52.270;10.544;2023-12-29T04:05:49;4.07;;;1.30;;
7529;SDS011;3806;52.270;10.544;2023-12-29T04:08:15;4.28;;;1.23;;
7529;SDS011;3806;52.270;10.544;2023-12-29T04:10:40;1.75;;;1.00;;
7529;SDS011;3806;52.270;10.544;2023-12-29T04:13:06;2.97;;;1.30;;
7529;SDS011;3806;52.270;10.544;2023-12-29T04:15:31;2.30;;;1.25;;
7529;SDS011;3806;52.270;10.544;2023-12-29T04:17:57;4.97;;;1.30;;
7529;SDS011;3806;52.270;10.544;2023-12-29T04:20:23;2.90;;;1.38;;
7529;SDS011;3806;52.270;10.544;2023-12-29T04:22:49;5.28;;;1.67;;
7529;SDS011;3806;52.270;10.544;2023-12-29T04:25:14;4.95;;;1.15;;
7529;SDS011;3806;52.270;10.544;2023-12-29T04:27:40;3.20;;;1.17;;
7529;SDS011;3806;52.270;10.544;2023-12-29T04:30:06;3.17;;;1.00;;
7529;SDS011;3806;52.270;10.544;2023-12-29T04:32:32;2.63;;;0.82;;
7529;SDS011;3806;52.270;10.544;2023-12-29T04:34:57;2.00;;;0.90;;
7529;SDS011;3806;52.270;10.544;2023-12-29T04:37:23;5.28;;;1.25;;
7529;SDS011;3806;52.270;10.544;2023-12-29T04:39:48;3.83;;;1.75;;
7529;SDS011;3806;52.270;10.544;2023-12-29T04:42:14;2.00;;;1.33;;
7529;SDS011;3806;52.270;10.544;2023-12-29T04:44:40;3.08;;;1.63;;
7529;SDS011;3806;52.270;10.544;2023-12-29T04:47:05;4.95;;;1.80;;
7529;SDS011;3806;52.270;10.544;2023-12-29T04:49:31;1.50;;;1.33;;
7529;SDS011;3806;52.270;10.544;2023-12-29T04:51:56;3.50;;;1.20;;
7529;SDS011;3806;52.270;10.544;2023-12-29T04:54:22;5.45;;;1.88;;
7529;SDS011;3806;52.270;10.544;2023-12-29T04:56:48;2.83;;;1.40;;
7529;SDS011;3806;52.270;10.544;2023-12-29T04:59:14;2.17;;;1.35;;
7529;SDS011;3806;52.270;10.544;2023-12-29T05:01:39;3.40;;;1.27;;
7529;SDS011;3806;52.270;10.544;2023-12-29T05:04:05;1.83;;;1.27;;
7529;SDS011;3806;52.270;10.544;2023-12-29T05:06:30;2.10;;;1.05;;
7529;SDS011;3806;52.270;10.544;2023-12-29T05:08:55;1.60;;;0.90;;
7529;SDS011;3806;52.270;10.544;2023-12-29T05:11:21;3.35;;;1.50;;
7529;SDS011;3806;52.270;10.544;2023-12-29T05:13:46;3.10;;;1.48;;
7529;SDS011;3806;52.270;10.544;2023-12-29T05:16:13;1.52;;;1.08;;
7529;SDS011;3806;52.270;10.544;2023-12-29T05:18:38;1.75;;;1.05;;
7529;SDS011;3806;52.270;10.544;2023-12-29T05:21:05;2.00;;;1.15;;
7529;SDS011;3806;52.270;10.544;2023-12-29T05:23:30;3.33;;;1.55;;
7529;SDS011;3806;52.270;10.544;2023-12-29T05:25:56;4.72;;;2.20;;
7529;SDS011;3806;52.270;10.544;2023-12-29T05:28:22;5.88;;;1.75;;
7529;SDS011;3806;52.270;10.544;2023-12-29T05:30:47;4.00;;;1.90;;
7529;SDS011;3806;52.270;10.544;2023-12-29T05:33:13;4.40;;;1.65;;
7529;SDS011;3806;52.270;10.544;2023-12-29T05:35:38;2.00;;;1.30;;
7529;SDS011;3806;52.270;10.544;2023-12-29T05:38:04;2.38;;;0.98;;
7529;SDS011;3806;52.270;10.544;2023-12-29T05:40:29;2.28;;;0.98;;
7529;SDS011;3806;52.270;10.544;2023-12-29T05:42:55;4.93;;;2.08;;
7529;SDS011;3806;52.270;10.544;2023-12-29T05:45:21;4.03;;;1.65;;
7529;SDS011;3806;52.270;10.544;2023-12-29T05:47:46;5.05;;;1.80;;
7529;SDS011;3806;52.270;10.544;2023-12-29T05:50:12;3.85;;;1.67;;
7529;SDS011;3806;52.270;10.544;2023-12-29T05:52:37;4.35;;;1.85;;
7529;SDS011;3806;52.270;10.544;2023-12-29T05:55:03;3.17;;;1.60;;
7529;SDS011;3806;52.270;10.544;2023-12-29T05:57:28;3.33;;;1.42;;
7529;SDS011;3806;52.270;10.544;2023-12-29T05:59:54;4.25;;;1.23;;
7529;SDS011;3806;52.270;10.544;2023-12-29T06:02:19;1.48;;;0.90;;
7529;SDS011;3806;52.270;10.544;2023-12-29T06:04:45;1.52;;;0.90;;
7529;SDS011;3806;52.270;10.544;2023-12-29T06:07:10;1.33;;;0.95;;
7529;SDS011;3806;52.270;10.544;2023-12-29T06:09:36;5.60;;;1.23;;
7529;SDS011;3806;52.270;10.544;2023-12-29T06:12:02;3.15;;;1.30;;
7529;SDS011;3806;52.270;10.544;2023-12-29T06:14:27;3.10;;;1.20;;
7529;SDS011;3806;52.270;10.544;2023-12-29T06:16:53;1.52;;;1.05;;
7529;SDS011;3806;52.270;10.544;2023-12-29T06:19:18;2.70;;;1.20;;
7529;SDS011;3806;52.270;10.544;2023-12-29T06:21:44;2.10;;;1.00;;
7529;SDS011;3806;52.270;10.544;2023-12-29T06:24:09;2.72;;;1.55;;
7529;SDS011;3806;52.270;10.544;2023-12-29T06:26:36;1.67;;;1.38;;
7529;SDS011;3806;52.270;10.544;2023-12-29T06:29:06;3.25;;;1.17;;
7529;SDS011;3806;52.270;10.544;2023-12-29T06:31:32;4.20;;;1.23;;
7529;SDS011;3806;52.270;10.544;2023-12-29T06:33:57;1.95;;;1.08;;
7529;SDS011;3806;52.270;10.544;2023-12-29T06:36:25;1.92;;;1.30;;
7529;SDS011;3806;52.270;10.544;2023-12-29T06:38:50;2.92;;;1.25;;
7529;SDS011;3806;52.270;10.544;2023-12-29T06:41:17;2.60;;;1.13;;
7529;SDS011;3806;52.270;10.544;2023-12-29T06:43:42;2.22;;;1.20;;
7529;SDS011;3806;52.270;10.544;2023-12-29T06:46:08;1.73;;;1.35;;
7529;SDS011;3806;52.270;10.544;2023-12-29T06:48:34;4.60;;;1.30;;
7529;SDS011;3806;52.270;10.544;2023-12-29T06:51:00;3.67;;;1.30;;
7529;SDS011;3806;52.270;10.544;2023-12-29T06:53:26;3.40;;;1.15;;
7529;SDS011;3806;52.270;10.544;2023-12-29T06:55:51;2.25;;;1.40;;
7529;SDS011;3806;52.270;10.544;2023-12-29T06:58:17;2.60;;;1.30;;
7529;SDS011;3806;52.270;10.544;2023-12-29T07:00:42;2.55;;;1.20;;
7529;SDS011;3806;52.270;10.544;2023-12-29T07:03:08;2.35;;;1.08;;
7529;SDS011;3806;52.270;10.544;2023-12-29T07:05:34;1.10;;;0.80;;
7529;SDS011;3806;52.270;10.544;2023-12-29T07:07:59;2.90;;;0.95;;
7529;SDS011;3806;52.270;10.544;2023-12-29T07:10:25;2.65;;;1.35;;
7529;SDS011;3806;52.270;10.544;2023-12-29T07:12:50;3.47;;;1.42;;
7529;SDS011;3806;52.270;10.544;2023-12-29T07:15:16;2.10;;;0.90;;
7529;SDS011;3806;52.270;10.544;2023-12-29T07:17:41;2.03;;;0.93;;
7529;SDS011;3806;52.270;10.544;2023-12-29T07:20:07;2.42;;;1.05;;
7529;SDS011;3806;52.270;10.544;2023-12-29T07:22:33;4.32;;;1.15;;
7529;SDS011;3806;52.270;10.544;2023-12-29T07:24:58;3.65;;;1.20;;
7529;SDS011;3806;52.270;10.544;2023-12-29T07:27:24;3.10;;;1.05;;
7529;SDS011;3806;52.270;10.544;2023-12-29T07:29:49;0.98;;;0.70;;
7529;SDS011;3806;52.270;10.544;2023-12-29T07:32:15;2.63;;;1.00;;
7529;SDS011;3806;52.270;10.544;2023-12-29T07:34:40;3.08;;;0.95;;
7529;SDS011;3806;52.270;10.544;2023-12-29T07:37:06;2.88;;;1.05;;
7529;SDS011;3806;52.270;10.544;2023-12-29T07:39:31;2.58;;;0.95;;
7529;SDS011;3806;52.270;10.544;2023-12-29T07:41:57;4.03;;;1.05;;
7529;SDS011;3806;52.270;10.544;2023-12-29T07:44:23;3.72;;;1.08;;
7529;SDS011;3806;52.270;10.544;2023-12-29T07:46:48;3.95;;;1.00;;
7529;SDS011;3806;52.270;10.544;2023-12-29T07:49:14;3.78;;;1.50;;
7529;SDS011;3806;52.270;10.544;2023-12-29T07:51:40;3.03;;;1.20;;
7529;SDS011;3806;52.270;10.544;2023-12-29T07:54:07;3.38;;;1.10;;
7529;SDS011;3806;52.270;10.544;2023-12-29T07:56:33;3.25;;;1.20;;
7529;SDS011;3806;52.270;10.544;2023-12-29T07:58:58;3.08;;;1.23;;
7529;SDS011;3806;52.270;10.544;2023-12-29T08:01:24;1.15;;;0.80;;
7529;SDS011;3806;52.270;10.544;2023-12-29T08:03:50;2.25;;;0.90;;
7529;SDS011;3806;52.270;10.544;2023-12-29T08:06:16;3.90;;;1.00;;
7529;SDS011;3806;52.270;10.544;2023-12-29T08:08:41;2.20;;;1.20;;
7529;SDS011;3806;52.270;10.544;2023-12-29T08:11:12;2.28;;;0.88;;
7529;SDS011;3806;52.270;10.544;2023-12-29T08:13:39;1.38;;;0.70;;
7529;SDS011;3806;52.270;10.544;2023-12-29T08:16:05;2.08;;;0.75;;
7529;SDS011;3806;52.270;10.544;2023-12-29T08:18:32;3.50;;;1.20;;
7529;SDS011;3806;52.270;10.544;2023-12-29T08:20:57;3.05;;;1.05;;
7529;SDS011;3806;52.270;10.544;2023-12-29T08:23:24;4.22;;;1.38;;
7529;SDS011;3806;52.270;10.544;2023-12-29T08:25:51;5.43;;;1.70;;
7529;SDS011;3806;52.270;10.544;2023-12-29T08:28:17;2.55;;;1.27;;
7529;SDS011;3806;52.270;10.544;2023-12-29T08:30:42;2.88;;;1.25;;
7529;SDS011;3806;52.270;10.544;2023-12-29T08:33:10;2.15;;;1.02;;
7529;SDS011;3806;52.270;10.544;2023-12-29T08:35:37;5.22;;;2.20;;
7529;SDS011;3806;52.270;10.544;2023-12-29T08:38:04;6.57;;;2.88;;
7529;SDS011;3806;52.270;10.544;2023-12-29T08:40:30;2.75;;;1.50;;
7529;SDS011;3806;52.270;10.544;2023-12-29T08:42:55;2.40;;;1.27;;
7529;SDS011;3806;52.270;10.544;2023-12-29T08:45:21;1.40;;;0.90;;
7529;SDS011;3806;52.270;10.544;2023-12-29T08:47:46;7.18;;;1.80;;
7529;SDS011;3806;52.270;10.544;2023-12-29T08:50:12;6.32;;;1.27;;
7529;SDS011;3806;52.270;10.544;2023-12-29T08:52:37;3.28;;;1.00;;
7529;SDS011;3806;52.270;10.544;2023-12-29T08:55:03;3.80;;;1.15;;
7529;SDS011;3806;52.270;10.544;2023-12-29T08:57:29;4.10;;;1.65;;
7529;SDS011;3806;52.270;10.544;2023-12-29T08:59:56;2.53;;;1.23;;
7529;SDS011;3806;52.270;10.544;2023-12-29T09:02:21;8.32;;;1.88;;
7529;SDS011;3806;52.270;10.544;2023-12-29T09:04:47;2.33;;;1.20;;
7529;SDS011;3806;52.270;10.544;2023-12-29T09:07:12;1.63;;;1.05;;
7529;SDS011;3806;52.270;10.544;2023-12-29T09:09:37;2.28;;;0.80;;
7529;SDS011;3806;52.270;10.544;2023-12-29T09:12:04;9.63;;;1.15;;
7529;SDS011;3806;52.270;10.544;2023-12-29T09:14:30;2.28;;;0.93;;
7529;SDS011;3806;52.270;10.544;2023-12-29T09:16:57;2.05;;;1.50;;
7529;SDS011;3806;52.270;10.544;2023-12-29T09:19:23;3.65;;;1.10;;
7529;SDS011;3806;52.270;10.544;2023-12-29T09:21:48;2.00;;;0.98;;
7529;SDS011;3806;52.270;10.544;2023-12-29T09:24:14;1.05;;;0.85;;
7529;SDS011;3806;52.270;10.544;2023-12-29T09:26:39;4.93;;;1.00;;
7529;SDS011;3806;52.270;10.544;2023-12-29T09:29:04;1.73;;;0.98;;
7529;SDS011;3806;52.270;10.544;2023-12-29T09:31:30;4.63;;;1.10;;
7529;SDS011;3806;52.270;10.544;2023-12-29T09:33:56;1.85;;;0.98;;
7529;SDS011;3806;52.270;10.544;2023-12-29T09:36:22;4.53;;;1.10;;
7529;SDS011;3806;52.270;10.544;2023-12-29T09:38:47;4.00;;;0.70;;
7529;SDS011;3806;52.270;10.544;2023-12-29T09:41:14;3.03;;;1.30;;
7529;SDS011;3806;52.270;10.544;2023-12-29T09:43:40;3.78;;;1.58;;
7529;SDS011;3806;52.270;10.544;2023-12-29T09:46:07;2.38;;;1.25;;
7529;SDS011;3806;52.270;10.544;2023-12-29T09:48:33;5.10;;;1.00;;
7529;SDS011;3806;52.270;10.544;2023-12-29T09:51:01;3.33;;;1.70;;
7529;SDS011;3806;52.270;10.544;2023-12-29T09:53:27;3.92;;;0.88;;
7529;SDS011;3806;52.270;10.544;2023-12-29T09:55:53;4.80;;;1.30;;
7529;SDS011;3806;52.270;10.544;2023-12-29T09:58:21;0.98;;;0.63;;
7529;SDS011;3806;52.270;10.544;2023-12-29T10:00:48;2.47;;;1.27;;
7529;SDS011;3806;52.270;10.544;2023-12-29T10:03:14;1.58;;;1.00;;
7529;SDS011;3806;52.270;10.544;2023-12-29T10:05:40;3.50;;;0.70;;
7529;SDS011;3806;52.270;10.544;2023-12-29T10:08:06;1.25;;;0.70;;
7529;SDS011;3806;52.270;10.544;2023-12-29T10:10:34;3.40;;;1.02;;
7529;SDS011;3806;52.270;10.544;2023-12-29T10:13:03;2.92;;;1.67;;
7529;SDS011;3806;52.270;10.544;2023-12-29T10:18:42;1.00;;;0.70;;
7529;SDS011;3806;52.270;10.544;2023-12-29T10:21:17;2.45;;;0.73;;
7529;SDS011;3806;52.270;10.544;2023-12-29T10:26:41;3.22;;;0.98;;
7529;SDS011;3806;52.270;10.544;2023-12-29T10:29:08;5.32;;;1.02;;
7529;SDS011;3806;52.270;10.544;2023-12-29T10:31:35;3.22;;;0.90;;
7529;SDS011;3806;52.270;10.544;2023-12-29T10:34:20;1.73;;;0.80;;
7529;SDS011;3806;52.270;10.544;2023-12-29T10:36:53;6.13;;;1.10;;
7529;SDS011;3806;52.270;10.544;2023-12-29T10:39:19;1.58;;;0.98;;
7529;SDS011;3806;52.270;10.544;2023-12-29T10:41:44;2.70;;;0.85;;
7529;SDS011;3806;52.270;10.544;2023-12-29T10:44:10;7.70;;;3.63;;
7529;SDS011;3806;52.270;10.544;2023-12-29T10:46:35;10.57;;;4.93;;
7529;SDS011;3806;52.270;10.544;2023-12-29T10:49:07;6.13;;;2.47;;
7529;SDS011;3806;52.270;10.544;2023-12-29T10:51:36;4.63;;;1.52;;
7529;SDS011;3806;52.270;10.544;2023-12-29T10:54:03;4.32;;;0.98;;
7529;SDS011;3806;52.270;10.544;2023-12-29T10:56:29;3.95;;;1.10;;
7529;SDS011;3806;52.270;10.544;2023-12-29T10:58:59;2.05;;;1.10;;
7529;SDS011;3806;52.270;10.544;2023-12-29T11:01:25;4.57;;;1.45;;
7529;SDS011;3806;52.270;10.544;2023-12-29T11:04:00;4.53;;;1.08;;
7529;SDS011;3806;52.270;10.544;2023-12-29T11:06:28;2.05;;;0.90;;
7529;SDS011;3806;52.270;10.544;2023-12-29T11:08:55;1.55;;;0.85;;
7529;SDS011;3806;52.270;10.544;2023-12-29T11:11:21;2.38;;;1.20;;
7529;SDS011;3806;52.270;10.544;2023-12-29T11:13:47;2.75;;;0.88;;
7529;SDS011;3806;52.270;10.544;2023-12-29T11:16:13;2.38;;;0.68;;
7529;SDS011;3806;52.270;10.544;2023-12-29T11:18:42;4.38;;;1.05;;
7529;SDS011;3806;52.270;10.544;2023-12-29T11:21:09;2.25;;;0.90;;
7529;SDS011;3806;52.270;10.544;2023-12-29T11:23:35;1.88;;;0.70;;
7529;SDS011;3806;52.270;10.544;2023-12-29T11:26:01;1.55;;;0.65;;
7529;SDS011;3806;52.270;10.544;2023-12-29T11:28:28;1.55;;;1.05;;
7529;SDS011;3806;52.270;10.544;2023-12-29T11:30:54;3.53;;;1.15;;
7529;SDS011;3806;52.270;10.544;2023-12-29T11:33:23;1.80;;;1.05;;
7529;SDS011;3806;52.270;10.544;2023-12-29T11:38:45;2.55;;;0.60;;
7529;SDS011;3806;52.270;10.544;2023-12-29T11:41:54;2.22;;;0.80;;
7529;SDS011;3806;52.270;10.544;2023-12-29T11:44:28;1.77;;;0.88;;
7529;SDS011;3806;52.270;10.544;2023-12-29T11:46:55;2.60;;;0.90;;
7529;SDS011;3806;52.270;10.544;2023-12-29T11:49:22;2.85;;;0.98;;
7529;SDS011;3806;52.270;10.544;2023-12-29T11:51:47;2.70;;;0.80;;
7529;SDS011;3806;52.270;10.544;2023-12-29T11:54:24;4.63;;;1.23;;
7529;SDS011;3806;52.270;10.544;2023-12-29T11:56:54;1.73;;;0.60;;
7529;SDS011;3806;52.270;10.544;2023-12-29T11:59:21;4.50;;;1.17;;
7529;SDS011;3806;52.270;10.544;2023-12-29T12:01:51;2.75;;;1.10;;
7529;SDS011;3806;52.270;10.544;2023-12-29T12:04:39;1.30;;;0.75;;
7529;SDS011;3806;52.270;10.544;2023-12-29T12:07:06;4.23;;;0.60;;
7529;SDS011;3806;52.270;10.544;2023-12-29T12:09:34;0.60;;;0.60;;
7529;SDS011;3806;52.270;10.544;2023-12-29T12:12:00;3.50;;;0.80;;
7529;SDS011;3806;52.270;10.544;2023-12-29T12:17:09;0.93;;;0.70;;
7529;SDS011;3806;52.270;10.544;2023-12-29T12:19:35;1.35;;;0.80;;
7529;SDS011;3806;52.270;10.544;2023-12-29T12:22:01;1.45;;;0.77;;
7529;SDS011;3806;52.270;10.544;2023-12-29T12:24:28;1.67;;;0.90;;
7529;SDS011;3806;52.270;10.544;2023-12-29T12:26:56;1.92;;;0.55;;
7529;SDS011;3806;52.270;10.544;2023-12-29T12:29:22;0.93;;;0.70;;
7529;SDS011;3806;52.270;10.544;2023-12-29T12:31:51;1.27;;;0.52;;
7529;SDS011;3806;52.270;10.544;2023-12-29T12:34:18;0.77;;;0.38;;
7529;SDS011;3806;52.270;10.544;2023-12-29T12:36:47;0.70;;;0.52;;
7529;SDS011;3806;52.270;10.544;2023-12-29T12:39:16;1.17;;;0.50;;
7529;SDS011;3806;52.270;10.544;2023-12-29T12:41:42;1.33;;;0.65;;
7529;SDS011;3806;52.270;10.544;2023-12-29T12:44:11;1.52;;;0.70;;
7529;SDS011;3806;52.270;10.544;2023-12-29T12:46:56;1.15;;;0.80;;
7529;SDS011;3806;52.270;10.544;2023-12-29T12:49:24;1.38;;;0.43;;
7529;SDS011;3806;52.270;10.544;2023-12-29T12:51:50;1.85;;;0.60;;
7529;SDS011;3806;52.270;10.544;2023-12-29T12:54:17;2.83;;;0.40;;
7529;SDS011;3806;52.270;10.544;2023-12-29T12:56:44;0.50;;;0.25;;
7529;SDS011;3806;52.270;10.544;2023-12-29T12:59:10;10.15;;;4.65;;
7529;SDS011;3806;52.270;10.544;2023-12-29T13:01:37;8.73;;;3.97;;
7529;SDS011;3806;52.270;10.544;2023-12-29T13:04:03;5.95;;;2.80;;
7529;SDS011;3806;52.270;10.544;2023-12-29T13:06:30;9.40;;;3.75;;
7529;SDS011;3806;52.270;10.544;2023-12-29T13:08:57;15.57;;;6.10;;
7529;SDS011;3806;52.270;10.544;2023-12-29T13:11:24;5.80;;;2.70;;
7529;SDS011;3806;52.270;10.544;2023-12-29T13:13:52;5.10;;;1.95;;
7529;SDS011;3806;52.270;10.544;2023-12-29T13:16:34;1.77;;;1.02;;
7529;SDS011;3806;52.270;10.544;2023-12-29T13:19:17;0.88;;;0.73;;
7529;SDS011;3806;52.270;10.544;2023-12-29T13:21:51;0.60;;;0.60;;
7529;SDS011;3806;52.270;10.544;2023-12-29T13:26:46;1.15;;;0.70;;
7529;SDS011;3806;52.270;10.544;2023-12-29T13:29:17;0.88;;;0.60;;
7529;SDS011;3806;52.270;10.544;2023-12-29T13:31:46;0.75;;;0.52;;
7529;SDS011;3806;52.270;10.544;2023-12-29T13:34:15;0.82;;;0.40;;
7529;SDS011;3806;52.270;10.544;2023-12-29T13:37:02;1.15;;;0.80;;
7529;SDS011;3806;52.270;10.544;2023-12-29T13:39:38;3.92;;;1.00;;
7529;SDS011;3806;52.270;10.544;2023-12-29T13:42:09;2.35;;;1.70;;
7529;SDS011;3806;52.270;10.544;2023-12-29T13:44:37;3.25;;;2.28;;
7529;SDS011;3806;52.270;10.544;2023-12-29T13:47:05;2.80;;;0.88;;
7529;SDS011;3806;52.270;10.544;2023-12-29T13:49:31;1.30;;;0.70;;
7529;SDS011;3806;52.270;10.544;2023-12-29T13:52:01;1.48;;;0.77;;
7529;SDS011;3806;52.270;10.544;2023-12-29T13:54:30;11.90;;;5.75;;
7529;SDS011;3806;52.270;10.544;2023-12-29T13:57:05;18.92;;;6.90;;
7529;SDS011;3806;52.270;10.544;2023-12-29T13:59:31;7.88;;;3.88;;
7529;SDS011;3806;52.270;10.544;2023-12-29T14:02:02;2.22;;;1.25;;
7529;SDS011;3806;52.270;10.544;2023-12-29T14:04:43;0.60;;;0.60;;
7529;SDS011;3806;52.270;10.544;2023-12-29T14:07:10;0.90;;;0.63;;
7529;SDS011;3806;52.270;10.544;2023-12-29T14:09:39;3.10;;;1.50;;
7529;SDS011;3806;52.270;10.544;2023-12-29T14:12:05;4.90;;;2.72;;
7529;SDS011;3806;52.270;10.544;2023-12-29T14:14:31;5.78;;;3.30;;
7529;SDS011;3806;52.270;10.544;2023-12-29T14:16:56;2.33;;;1.33;;
7529;SDS011;3806;52.270;10.544;2023-12-29T14:19:22;2.10;;;1.15;;
7529;SDS011;3806;52.270;10.544;2023-12-29T14:21:51;0.88;;;0.80;;
7529;SDS011;3806;52.270;10.544;2023-12-29T14:24:19;1.67;;;1.20;;
7529;SDS011;3806;52.270;10.544;2023-12-29T14:29:17;1.98;;;1.00;;
7529;SDS011;3806;52.270;10.544;2023-12-29T14:31:43;2.95;;;1.38;;
7529;SDS011;3806;52.270;10.544;2023-12-29T14:34:09;1.42;;;0.90;;
7529;SDS011;3806;52.270;10.544;2023-12-29T14:36:36;1.77;;;1.00;;
7529;SDS011;3806;52.270;10.544;2023-12-29T14:39:03;1.30;;;0.90;;
7529;SDS011;3806;52.270;10.544;2023-12-29T14:41:30;2.17;;;1.08;;
7529;SDS011;3806;52.270;10.544;2023-12-29T14:43:55;1.30;;;0.90;;
7529;SDS011;3806;52.270;10.544;2023-12-29T14:46:21;1.17;;;0.32;;
7529;SDS011;3806;52.270;10.544;2023-12-29T14:48:47;0.90;;;0.55;;
7529;SDS011;3806;52.270;10.544;2023-12-29T14:51:13;0.98;;;0.50;;
7529;SDS011;3806;52.270;10.544;2023-12-29T14:53:39;1.75;;;0.80;;
7529;SDS011;3806;52.270;10.544;2023-12-29T14:56:05;0.82;;;0.60;;
7529;SDS011;3806;52.270;10.544;2023-12-29T14:58:30;0.60;;;0.60;;
7529;SDS011;3806;52.270;10.544;2023-12-29T15:01:01;0.90;;;0.45;;
7529;SDS011;3806;52.270;10.544;2023-12-29T15:03:27;0.80;;;0.63;;
7529;SDS011;3806;52.270;10.544;2023-12-29T15:05:53;1.40;;;0.50;;
7529;SDS011;3806;52.270;10.544;2023-12-29T15:08:18;1.20;;;0.50;;
7529;SDS011;3806;52.270;10.544;2023-12-29T15:10:44;0.60;;;0.60;;
7529;SDS011;3806;52.270;10.544;2023-12-29T15:13:10;0.75;;;0.60;;
7529;SDS011;3806;52.270;10.544;2023-12-29T15:15:36;1.35;;;0.60;;
7529;SDS011;3806;52.270;10.544;2023-12-29T15:18:01;0.63;;;0.57;;
7529;SDS011;3806;52.270;10.544;2023-12-29T15:20:27;1.42;;;0.60;;
7529;SDS011;3806;52.270;10.544;2023-12-29T15:22:53;0.68;;;0.52;;